Vowinckel, Pennsylvania
Current Conditions -  °F | °C
As of 9:07 PM on Sunday 23 Nov 2014 (Local Time) from KDUJ Reporting Station
Broken Clouds Broken Clouds  
Wind Chill: 51°   Ceiling: 2400
Heat Index: 51°   Visibility: 10mi
Dew Point: 37°   Wind: 15mph
Humidity: 59%   Direction: 140°SE
Pressure: 29.75"   Gusts: 29mph
Location:  41.41°N, 79.23°W
Report Text: KDUJ 240207Z AUTO 14013G25KT 10SM BKN024 11/03 A2975 RMK AO2 T01060028
Loading
Personal Weather Stations






























Interactive Weather Map New forecast layout! Learn more

10-Day Weather Forecast

Advertisements
Track Severe Weather on mobile